createdAt,value
2022-09-28T00:00:23.570Z,987.92
2022-09-28T00:01:23.606Z,987.95
2022-09-28T00:02:23.666Z,987.94
2022-09-28T00:03:46.620Z,987.89
2022-09-28T00:04:23.568Z,987.94
2022-09-28T00:05:25.535Z,987.93
2022-09-28T00:06:23.459Z,987.88
2022-09-28T00:07:45.566Z,987.92
2022-09-28T00:08:23.676Z,987.90
2022-09-28T00:09:23.415Z,987.89
2022-09-28T00:10:23.408Z,987.90
2022-09-28T00:11:23.430Z,987.86
2022-09-28T00:12:23.364Z,987.88
2022-09-28T00:13:23.400Z,987.88
2022-09-28T00:14:23.366Z,987.86
2022-09-28T00:15:23.350Z,987.88
2022-09-28T00:16:23.384Z,987.87
2022-09-28T00:17:23.307Z,987.86
2022-09-28T00:18:23.297Z,987.83
2022-09-28T00:19:23.312Z,987.85
2022-09-28T00:20:23.314Z,987.84
2022-09-28T00:21:23.260Z,987.86
2022-09-28T00:22:23.273Z,987.84
2022-09-28T00:23:23.264Z,987.87
2022-09-28T00:24:27.513Z,987.92
2022-09-28T00:25:23.231Z,987.91
2022-09-28T00:26:23.169Z,987.92
2022-09-28T00:27:23.196Z,987.91
2022-09-28T00:28:23.249Z,987.90
2022-09-28T00:29:23.198Z,987.85
2022-09-28T00:30:23.176Z,987.83
2022-09-28T00:31:23.269Z,987.84
2022-09-28T00:32:23.124Z,987.86
2022-09-28T00:33:23.074Z,987.86
2022-09-28T00:34:23.105Z,987.84
2022-09-28T00:35:23.063Z,987.87
2022-09-28T00:36:23.045Z,987.83
2022-09-28T00:37:23.137Z,987.80
2022-09-28T00:38:23.004Z,987.79
2022-09-28T00:39:23.009Z,987.79
2022-09-28T00:40:23.107Z,987.79
2022-09-28T00:41:23.001Z,987.82
2022-09-28T00:42:22.999Z,987.77
2022-09-28T00:43:22.948Z,987.78
2022-09-28T00:44:23.029Z,987.76
2022-09-28T00:45:22.933Z,987.76
2022-09-28T00:46:22.956Z,987.82
2022-09-28T00:47:22.982Z,987.79
2022-09-28T00:48:22.882Z,987.80
2022-09-28T00:49:22.906Z,987.76
2022-09-28T00:50:22.844Z,987.74
2022-09-28T00:51:22.831Z,987.76
2022-09-28T00:52:22.817Z,987.76
2022-09-28T00:53:22.870Z,987.75
2022-09-28T00:54:22.814Z,987.72
2022-09-28T00:55:22.854Z,987.76
2022-09-28T00:56:22.763Z,987.77
2022-09-28T00:57:22.780Z,987.78
2022-09-28T00:58:22.740Z,987.74
2022-09-28T00:59:44.532Z,987.74
2022-09-28T01:00:24.771Z,987.75
2022-09-28T01:01:22.815Z,987.75
2022-09-28T01:02:25.938Z,987.75
2022-09-28T01:03:22.708Z,987.77
2022-09-28T01:04:25.010Z,987.76
2022-09-28T01:05:22.690Z,987.78
2022-09-28T01:06:22.639Z,987.75
2022-09-28T01:07:22.641Z,987.72
2022-09-28T01:08:22.611Z,987.71
2022-09-28T01:09:22.588Z,987.75
2022-09-28T01:10:22.573Z,987.74
2022-09-28T01:11:22.598Z,987.73
2022-09-28T01:12:24.790Z,987.68
2022-09-28T01:13:22.543Z,987.68
2022-09-28T01:14:45.482Z,987.67
2022-09-28T01:15:22.539Z,987.69
2022-09-28T01:16:22.589Z,987.66
2022-09-28T01:17:23.641Z,987.67
2022-09-28T01:18:22.571Z,987.60
2022-09-28T01:20:38.141Z,987.60
2022-09-28T01:21:39.141Z,987.64
2022-09-28T01:24:23.221Z,987.61
2022-09-28T01:25:24.147Z,987.65
2022-09-28T01:26:24.168Z,987.63
2022-09-28T01:27:24.185Z,987.60
2022-09-28T01:28:24.158Z,987.62
2022-09-28T01:29:24.137Z,987.61
2022-09-28T01:30:24.081Z,987.60
2022-09-28T01:31:24.107Z,987.66
2022-09-28T01:32:24.101Z,987.67
2022-09-28T01:33:24.193Z,987.67
2022-09-28T01:34:24.067Z,987.67
2022-09-28T01:35:24.069Z,987.63
2022-09-28T01:36:23.996Z,987.64
2022-09-28T01:37:24.025Z,987.65
2022-09-28T01:38:23.969Z,987.62
2022-09-28T01:39:23.973Z,987.60
2022-09-28T01:40:24.020Z,987.58
2022-09-28T01:41:23.932Z,987.58
2022-09-28T01:42:23.953Z,987.56
2022-09-28T01:43:23.918Z,987.55
2022-09-28T01:44:23.900Z,987.55
2022-09-28T01:45:24.021Z,987.55
2022-09-28T01:46:23.902Z,987.52
2022-09-28T01:47:24.050Z,987.58
2022-09-28T01:48:23.890Z,987.55
2022-09-28T01:49:23.863Z,987.55
2022-09-28T01:50:23.860Z,987.54
2022-09-28T01:51:23.821Z,987.56
2022-09-28T01:52:32.840Z,987.59
2022-09-28T01:53:45.855Z,987.54
2022-09-28T01:54:23.763Z,987.54
2022-09-28T01:55:23.819Z,987.60
2022-09-28T01:56:25.615Z,987.61
2022-09-28T01:57:23.729Z,987.57
2022-09-28T02:09:36.056Z,987.53
2022-09-28T02:10:17.805Z,987.51
2022-09-28T02:14:06.797Z,987.52
2022-09-28T02:15:28.846Z,987.52
2022-09-28T02:16:07.866Z,987.53
2022-09-28T02:17:07.752Z,987.53
2022-09-28T02:18:07.791Z,987.50
2022-09-28T02:19:07.730Z,987.53
2022-09-28T02:20:07.751Z,987.52
2022-09-28T02:21:07.709Z,987.52
2022-09-28T02:22:07.716Z,987.53
2022-09-28T02:23:07.678Z,987.51
2022-09-28T02:24:07.641Z,987.48
2022-09-28T02:25:07.667Z,987.49
2022-09-28T02:26:07.638Z,987.51
2022-09-28T02:27:07.613Z,987.53
2022-09-28T02:28:07.604Z,987.51
2022-09-28T02:29:07.592Z,987.52
2022-09-28T02:30:07.632Z,987.53
2022-09-28T02:31:07.610Z,987.48
2022-09-28T02:32:07.621Z,987.48
2022-09-28T02:33:07.592Z,987.50
2022-09-28T02:34:07.542Z,987.46
2022-09-28T02:35:07.509Z,987.46
2022-09-28T02:36:07.570Z,987.48
2022-09-28T02:37:07.492Z,987.50
2022-09-28T02:38:07.479Z,987.54
2022-09-28T02:39:07.459Z,987.48
2022-09-28T02:40:07.467Z,987.48
2022-09-28T02:41:07.465Z,987.53
2022-09-28T02:42:07.522Z,987.49
2022-09-28T02:43:07.429Z,987.50
2022-09-28T02:44:07.408Z,987.51
2022-09-28T02:45:07.396Z,987.54
2022-09-28T02:46:07.531Z,987.50
2022-09-28T02:47:07.385Z,987.47
2022-09-28T02:48:07.483Z,987.48
2022-09-28T02:49:22.594Z,987.49
2022-09-28T02:50:07.337Z,987.51
2022-09-28T02:51:07.316Z,987.52
2022-09-28T03:09:29.555Z,987.53
2022-09-28T03:10:14.184Z,987.49
2022-09-28T03:12:26.635Z,987.55
2022-09-28T03:13:27.654Z,987.54
2022-09-28T03:14:27.573Z,987.53
2022-09-28T03:15:27.576Z,987.54
2022-09-28T03:17:47.596Z,987.54
2022-09-28T03:18:41.280Z,987.55
2022-09-28T03:19:41.248Z,987.57
2022-09-28T03:24:32.024Z,987.61
2022-09-28T03:25:31.303Z,987.58
2022-09-28T03:26:31.250Z,987.58
2022-09-28T03:27:31.261Z,987.52
2022-09-28T03:28:31.308Z,987.52
2022-09-28T03:38:19.477Z,987.61
2022-09-28T03:39:20.501Z,987.59
2022-09-28T03:40:20.453Z,987.55
2022-09-28T03:41:41.556Z,987.59
2022-09-28T03:42:20.490Z,987.57
2022-09-28T03:43:50.033Z,987.59
2022-09-28T03:44:20.512Z,987.53
2022-09-28T03:46:32.795Z,987.62
2022-09-28T03:47:33.771Z,987.58
2022-09-28T03:48:52.053Z,987.61
2022-09-28T03:58:29.186Z,987.58
2022-09-28T03:59:49.901Z,987.53
2022-09-28T04:00:28.847Z,987.51
2022-09-28T04:05:00.340Z,987.47
2022-09-28T04:06:01.323Z,987.50
2022-09-28T04:07:01.316Z,987.47
2022-09-28T04:11:23.054Z,987.51
2022-09-28T04:12:03.331Z,987.48
2022-09-28T04:12:51.306Z,987.50
2022-09-28T04:13:51.289Z,987.47
2022-09-28T04:14:51.305Z,987.49
2022-09-28T04:15:51.296Z,987.49
2022-09-28T04:16:51.313Z,987.51
2022-09-28T04:18:12.239Z,987.50
2022-09-28T04:18:51.234Z,987.50
2022-09-28T04:19:51.199Z,987.50
2022-09-28T04:21:12.179Z,987.47
2022-09-28T04:21:51.167Z,987.51
2022-09-28T04:22:51.168Z,987.54
2022-09-28T04:23:51.153Z,987.58
2022-09-28T04:29:15.961Z,987.57
2022-09-28T04:30:04.078Z,987.54
2022-09-28T04:31:01.190Z,987.56
2022-09-28T04:32:01.175Z,987.58
2022-09-28T04:33:01.140Z,987.57
2022-09-28T04:34:01.110Z,987.54
2022-09-28T04:35:01.100Z,987.58
2022-09-28T04:36:01.115Z,987.61
2022-09-28T04:37:01.075Z,987.59
2022-09-28T04:38:01.053Z,987.59
2022-09-28T04:39:01.078Z,987.63
2022-09-28T04:40:01.066Z,987.60
2022-09-28T04:41:01.143Z,987.67
2022-09-28T04:42:01.043Z,987.66
2022-09-28T04:43:00.976Z,987.64
2022-09-28T04:44:00.963Z,987.62
2022-09-28T04:45:01.009Z,987.65
2022-09-28T04:46:00.978Z,987.64
2022-09-28T04:47:04.967Z,987.66
2022-09-28T04:48:00.949Z,987.64
2022-09-28T04:49:03.993Z,987.66
2022-09-28T04:50:06.941Z,987.65
2022-09-28T04:51:21.899Z,987.63
2022-09-28T04:54:19.867Z,987.69
2022-09-28T04:55:20.846Z,987.68
2022-09-28T04:58:52.701Z,987.68
2022-09-28T04:59:52.685Z,987.63
2022-09-28T05:00:51.101Z,987.67
2022-09-28T05:01:51.138Z,987.67
2022-09-28T05:02:51.015Z,987.71
2022-09-28T05:03:51.065Z,987.66
2022-09-28T05:04:54.282Z,987.66
2022-09-28T05:05:50.980Z,987.65
2022-09-28T05:06:51.010Z,987.68
2022-09-28T05:07:51.021Z,987.73
2022-09-28T05:08:51.010Z,987.75
2022-09-28T05:09:51.028Z,987.71
2022-09-28T05:12:16.796Z,987.71
2022-09-28T05:13:17.739Z,987.71
2022-09-28T05:14:38.714Z,987.68
2022-09-28T05:15:17.726Z,987.66
2022-09-28T05:16:17.737Z,987.67
2022-09-28T05:17:17.693Z,987.67
2022-09-28T05:18:17.668Z,987.69
2022-09-28T05:19:17.843Z,987.66
2022-09-28T05:20:17.632Z,987.67
2022-09-28T05:21:17.685Z,987.68
2022-09-28T05:22:17.693Z,987.70
2022-09-28T05:23:17.595Z,987.71
2022-09-28T05:24:17.611Z,987.70
2022-09-28T05:25:17.655Z,987.71
2022-09-28T05:26:17.544Z,987.70
2022-09-28T05:27:17.565Z,987.70
2022-09-28T05:28:17.784Z,987.68
2022-09-28T05:29:17.633Z,987.66
2022-09-28T05:30:17.495Z,987.64
2022-09-28T05:31:17.580Z,987.67
2022-09-28T05:32:17.490Z,987.62
2022-09-28T05:33:19.851Z,987.61
2022-09-28T05:34:38.438Z,987.65
2022-09-28T05:35:17.611Z,987.65
2022-09-28T05:36:17.394Z,987.63
2022-09-28T05:37:17.391Z,987.60
2022-09-28T05:38:17.381Z,987.62
2022-09-28T05:39:17.515Z,987.63
2022-09-28T05:40:17.478Z,987.62
2022-09-28T05:41:17.351Z,987.59
2022-09-28T05:42:20.392Z,987.60
2022-09-28T05:43:17.340Z,987.58
2022-09-28T05:44:17.510Z,987.65
2022-09-28T05:45:17.304Z,987.64
2022-09-28T05:46:17.365Z,987.63
2022-09-28T05:47:39.400Z,987.62
2022-09-28T05:48:17.262Z,987.68
2022-09-28T05:49:17.255Z,987.68
2022-09-28T05:50:39.225Z,987.68
2022-09-28T05:51:17.192Z,987.65
2022-09-28T05:52:38.215Z,987.65
2022-09-28T05:53:17.162Z,987.65
2022-09-28T05:54:17.382Z,987.68
2022-09-28T05:55:17.170Z,987.64
2022-09-28T05:56:17.131Z,987.66
2022-09-28T05:57:17.126Z,987.67
2022-09-28T05:58:17.119Z,987.72
2022-09-28T05:59:17.134Z,987.70
2022-09-28T06:00:17.080Z,987.67
2022-09-28T06:01:17.117Z,987.69
2022-09-28T06:02:17.119Z,987.68
2022-09-28T06:03:17.048Z,987.69
2022-09-28T06:04:17.178Z,987.70
2022-09-28T06:05:17.045Z,987.73
2022-09-28T06:06:17.043Z,987.71
2022-09-28T06:07:17.120Z,987.69
2022-09-28T06:08:16.982Z,987.68
2022-09-28T06:09:17.007Z,987.68
2022-09-28T06:10:16.993Z,987.66
2022-09-28T06:11:16.962Z,987.67
2022-09-28T06:12:16.944Z,987.65
2022-09-28T06:13:16.982Z,987.64
2022-09-28T06:14:16.982Z,987.68
2022-09-28T06:15:16.889Z,987.68
2022-09-28T06:16:16.906Z,987.71
2022-09-28T06:17:16.885Z,987.71
2022-09-28T06:18:16.898Z,987.71
2022-09-28T06:19:16.807Z,987.74
2022-09-28T06:20:16.832Z,987.79
2022-09-28T06:21:16.830Z,987.77
2022-09-28T06:22:16.820Z,987.77
2022-09-28T06:23:16.795Z,987.81
2022-09-28T06:24:16.925Z,987.81
2022-09-28T06:25:16.786Z,987.81
2022-09-28T06:26:16.731Z,987.86
2022-09-28T06:27:16.732Z,987.83
2022-09-28T06:28:16.743Z,987.84
2022-09-28T06:29:19.472Z,987.82
2022-09-28T06:30:16.675Z,987.86
2022-09-28T06:31:16.698Z,987.88
2022-09-28T06:32:16.645Z,987.86
2022-09-28T06:33:16.647Z,987.87
2022-09-28T06:34:17.153Z,987.88
2022-09-28T06:35:16.608Z,987.88
2022-09-28T06:36:16.634Z,987.90
2022-09-28T06:37:17.595Z,987.94
2022-09-28T06:38:16.589Z,987.93
2022-09-28T06:39:18.685Z,987.93
2022-09-28T06:40:16.585Z,987.98
2022-09-28T06:41:16.542Z,987.99
2022-09-28T06:42:16.534Z,988.00
2022-09-28T06:43:16.499Z,988.03
2022-09-28T06:44:16.628Z,988.01
2022-09-28T06:45:16.496Z,988.02
2022-09-28T06:46:16.570Z,988.06
2022-09-28T06:47:19.526Z,988.06
2022-09-28T06:48:16.411Z,988.07
2022-09-28T06:49:19.491Z,988.09
2022-09-28T06:50:17.425Z,988.14
2022-09-28T06:51:16.391Z,988.13
2022-09-28T06:52:16.368Z,988.13
2022-09-28T06:53:16.509Z,988.18
2022-09-28T06:54:16.461Z,988.18
2022-09-28T06:55:16.347Z,988.13
2022-09-28T06:56:19.613Z,988.20
2022-09-28T06:57:16.322Z,988.14
2022-09-28T06:58:16.297Z,988.20
2022-09-28T06:59:16.259Z,988.19
2022-09-28T07:00:16.257Z,988.17
2022-09-28T07:01:16.320Z,988.21
2022-09-28T07:02:16.379Z,988.18
2022-09-28T07:03:37.244Z,988.21
2022-09-28T07:04:16.325Z,988.18
2022-09-28T07:05:16.232Z,988.16
2022-09-28T07:06:16.306Z,988.19
2022-09-28T07:07:16.223Z,988.18
2022-09-28T07:08:16.220Z,988.21
2022-09-28T07:09:30.430Z,988.19
2022-09-28T07:10:16.125Z,988.24
2022-09-28T07:11:16.174Z,988.28
2022-09-28T07:12:16.216Z,988.29
2022-09-28T07:13:40.704Z,988.30
2022-09-28T07:14:30.606Z,988.29
2022-09-28T07:15:16.060Z,988.31
2022-09-28T07:16:16.117Z,988.34
2022-09-28T07:17:16.105Z,988.36
2022-09-28T07:18:16.057Z,988.34
2022-09-28T07:19:16.043Z,988.32
2022-09-28T07:20:19.185Z,988.32
2022-09-28T07:21:25.419Z,988.38
2022-09-28T07:22:18.859Z,988.37
2022-09-28T07:23:19.269Z,988.34
2022-09-28T07:24:15.933Z,988.33
2022-09-28T07:25:15.960Z,988.34
2022-09-28T07:26:18.582Z,988.34
2022-09-28T07:27:15.988Z,988.35
2022-09-28T07:28:15.890Z,988.37
2022-09-28T07:29:15.987Z,988.37
2022-09-28T07:30:15.905Z,988.38
2022-09-28T07:31:15.956Z,988.47
2022-09-28T07:32:36.818Z,988.42
2022-09-28T07:33:16.652Z,988.42
2022-09-28T07:34:15.872Z,988.46
2022-09-28T07:35:15.847Z,988.46
2022-09-28T07:36:15.790Z,988.43
2022-09-28T07:37:15.757Z,988.47
2022-09-28T07:38:15.733Z,988.50
2022-09-28T07:39:15.754Z,988.52
2022-09-28T07:40:15.765Z,988.54
2022-09-28T07:41:15.741Z,988.56
2022-09-28T07:42:15.700Z,988.56
2022-09-28T07:43:15.706Z,988.58
2022-09-28T07:44:15.682Z,988.55
2022-09-28T07:45:15.724Z,988.58
2022-09-28T07:46:15.785Z,988.56
2022-09-28T07:47:15.659Z,988.55
2022-09-28T07:48:15.662Z,988.56
2022-09-28T07:49:15.629Z,988.61
2022-09-28T07:50:15.703Z,988.60
2022-09-28T07:51:15.599Z,988.65
2022-09-28T07:52:15.565Z,988.63
2022-09-28T07:53:15.539Z,988.65
2022-09-28T07:54:15.520Z,988.66
2022-09-28T07:55:15.699Z,988.66
2022-09-28T07:56:15.553Z,988.66
2022-09-28T07:57:15.606Z,988.70
2022-09-28T07:58:15.481Z,988.71
2022-09-28T07:59:15.515Z,988.66
2022-09-28T08:00:15.441Z,988.69
2022-09-28T08:01:15.488Z,988.68
2022-09-28T08:02:15.452Z,988.70
2022-09-28T08:03:15.442Z,988.69
2022-09-28T08:04:15.464Z,988.68
2022-09-28T08:05:15.453Z,988.72
2022-09-28T08:06:15.378Z,988.71
2022-09-28T08:07:15.385Z,988.74
2022-09-28T08:08:15.396Z,988.74
2022-09-28T08:09:15.367Z,988.75
2022-09-28T08:10:15.291Z,988.79
2022-09-28T08:11:15.314Z,988.79
2022-09-28T08:12:15.429Z,988.80
2022-09-28T08:13:15.503Z,988.82
2022-09-28T08:14:15.309Z,988.82
2022-09-28T08:15:15.337Z,988.82
2022-09-28T08:16:15.406Z,988.80
2022-09-28T08:17:15.244Z,988.80
2022-09-28T08:18:15.289Z,988.79
2022-09-28T08:19:16.268Z,988.84
2022-09-28T08:20:15.169Z,988.81
2022-09-28T08:21:15.204Z,988.84
2022-09-28T08:22:15.213Z,988.89
2022-09-28T08:23:15.212Z,988.81
2022-09-28T08:24:15.152Z,988.82
2022-09-28T08:25:15.134Z,988.90
2022-09-28T08:26:15.774Z,988.86
2022-09-28T08:27:15.120Z,988.86
2022-09-28T08:28:15.150Z,988.87
2022-09-28T08:29:15.038Z,988.87
2022-09-28T08:30:15.057Z,988.91
2022-09-28T08:31:15.084Z,988.94
2022-09-28T08:32:15.018Z,988.96
2022-09-28T08:33:15.011Z,988.97
2022-09-28T08:34:15.091Z,988.96
2022-09-28T08:35:14.985Z,988.97
2022-09-28T08:36:14.944Z,989.02
2022-09-28T08:37:14.937Z,989.07
2022-09-28T08:38:14.918Z,988.97
2022-09-28T08:39:14.936Z,988.96
2022-09-28T08:40:14.895Z,989.00
2022-09-28T08:41:14.892Z,988.98
2022-09-28T08:42:14.862Z,988.98
2022-09-28T08:43:14.869Z,988.97
2022-09-28T08:44:14.921Z,989.03
2022-09-28T08:45:14.848Z,988.97
2022-09-28T08:46:15.273Z,988.98
2022-09-28T08:47:14.825Z,988.97
2022-09-28T08:48:14.782Z,989.02
2022-09-28T08:49:31.610Z,989.04
2022-09-28T08:50:14.777Z,989.05
2022-09-28T08:51:14.788Z,989.05
2022-09-28T08:52:14.734Z,989.05
2022-09-28T08:53:14.715Z,989.09
2022-09-28T08:54:18.022Z,989.07
2022-09-28T08:55:14.700Z,989.07
2022-09-28T08:56:14.681Z,989.03
2022-09-28T08:57:14.670Z,989.12
2022-09-28T08:58:14.659Z,989.09
2022-09-28T08:59:14.682Z,989.09
2022-09-28T09:00:17.747Z,989.07
2022-09-28T09:01:14.729Z,989.13
2022-09-28T09:02:35.651Z,989.10
2022-09-28T09:03:14.617Z,989.15
2022-09-28T09:04:14.702Z,989.09
2022-09-28T09:05:14.545Z,989.15
2022-09-28T09:06:18.322Z,989.20
2022-09-28T09:07:14.596Z,989.21
2022-09-28T09:08:14.521Z,989.24
2022-09-28T09:09:14.492Z,989.24
2022-09-28T09:10:14.489Z,989.26
2022-09-28T09:11:14.500Z,989.27
2022-09-28T09:12:14.610Z,989.24
2022-09-28T09:13:14.434Z,989.21
2022-09-28T09:20:28.665Z,989.34
2022-09-28T09:21:26.547Z,989.36
2022-09-28T09:22:23.536Z,989.34
2022-09-28T09:23:23.450Z,989.34
2022-09-28T09:24:23.425Z,989.30
2022-09-28T09:25:23.424Z,989.32
2022-09-28T09:26:25.913Z,989.31
2022-09-28T09:27:23.373Z,989.32
2022-09-28T09:28:23.371Z,989.33
2022-09-28T09:29:23.471Z,989.29
2022-09-28T09:30:23.412Z,989.30
2022-09-28T09:31:23.336Z,989.34
2022-09-28T09:32:23.300Z,989.35
2022-09-28T09:33:23.311Z,989.37
2022-09-28T09:34:23.283Z,989.32
2022-09-28T09:35:27.940Z,989.35
2022-09-28T09:36:23.264Z,989.37
2022-09-28T09:37:23.257Z,989.38
2022-09-28T09:38:23.238Z,989.43
2022-09-28T09:39:23.240Z,989.41
2022-09-28T09:40:23.307Z,989.39
2022-09-28T09:41:23.207Z,989.39
2022-09-28T09:42:23.206Z,989.43
2022-09-28T09:43:25.743Z,989.48
2022-09-28T09:44:23.184Z,989.47
2022-09-28T09:45:23.166Z,989.48
2022-09-28T09:46:23.170Z,989.47
2022-09-28T09:47:23.114Z,989.51
2022-09-28T09:48:23.112Z,989.48
2022-09-28T09:49:23.086Z,989.44
2022-09-28T09:50:23.068Z,989.44
2022-09-28T09:51:23.096Z,989.49
2022-09-28T09:52:23.091Z,989.42
2022-09-28T09:53:23.044Z,989.46
2022-09-28T09:54:23.018Z,989.44
2022-09-28T09:55:27.394Z,989.43
2022-09-28T09:56:22.989Z,989.42
2022-09-28T09:57:22.984Z,989.44
2022-09-28T09:58:22.948Z,989.42
2022-09-28T09:59:22.977Z,989.39
2022-09-28T10:00:23.039Z,989.46
2022-09-28T10:01:22.996Z,989.52
2022-09-28T10:02:22.987Z,989.47
2022-09-28T10:03:22.926Z,989.51
2022-09-28T10:04:22.879Z,989.50
2022-09-28T10:05:22.859Z,989.49
2022-09-28T10:06:22.881Z,989.49
2022-09-28T10:07:22.841Z,989.53
2022-09-28T10:08:22.907Z,989.51
2022-09-28T10:09:22.848Z,989.51
2022-09-28T10:10:22.840Z,989.51
2022-09-28T10:11:22.789Z,989.53
2022-09-28T10:12:22.764Z,989.53
2022-09-28T10:13:22.798Z,989.53
2022-09-28T10:14:22.785Z,989.53
2022-09-28T10:15:22.812Z,989.55
2022-09-28T10:16:22.771Z,989.55
2022-09-28T10:17:22.750Z,989.56
2022-09-28T10:18:22.741Z,989.58
2022-09-28T10:19:22.754Z,989.53
2022-09-28T10:20:22.669Z,989.55
2022-09-28T10:21:22.796Z,989.57
2022-09-28T10:22:22.682Z,989.58
2022-09-28T10:23:22.721Z,989.56
2022-09-28T10:24:22.600Z,989.59
2022-09-28T10:25:22.622Z,989.54
2022-09-28T10:26:24.916Z,989.59
2022-09-28T10:27:22.575Z,989.49
2022-09-28T10:28:22.569Z,989.47
2022-09-28T10:29:22.572Z,989.52
2022-09-28T10:30:22.525Z,989.44
2022-09-28T10:31:22.528Z,989.48
2022-09-28T10:32:22.499Z,989.47
2022-09-28T10:33:22.501Z,989.47
2022-09-28T10:34:22.475Z,989.52
2022-09-28T10:35:22.473Z,989.51
2022-09-28T10:36:22.551Z,989.52
2022-09-28T10:37:22.445Z,989.49
2022-09-28T10:38:22.422Z,989.51
2022-09-28T10:39:22.404Z,989.53
2022-09-28T10:40:22.437Z,989.55
2022-09-28T10:41:22.424Z,989.55
2022-09-28T10:42:22.373Z,989.59
2022-09-28T10:43:22.366Z,989.57
2022-09-28T10:44:22.391Z,989.61
2022-09-28T10:45:22.325Z,989.59
2022-09-28T10:46:22.408Z,989.60
2022-09-28T10:47:22.300Z,989.61
2022-09-28T10:48:22.264Z,989.63
2022-09-28T10:49:22.305Z,989.63
2022-09-28T10:50:22.263Z,989.60
2022-09-28T10:51:22.262Z,989.57
2022-09-28T10:52:22.249Z,989.56
2022-09-28T10:53:22.225Z,989.60
2022-09-28T10:54:22.210Z,989.60
2022-09-28T10:55:22.184Z,989.56
2022-09-28T10:56:22.193Z,989.59
2022-09-28T10:57:22.579Z,989.59
2022-09-28T10:58:22.777Z,989.65
2022-09-28T10:59:22.165Z,989.58
2022-09-28T11:00:22.114Z,989.61
2022-09-28T11:01:22.174Z,989.64
2022-09-28T11:02:22.177Z,989.69
2022-09-28T11:03:22.082Z,989.65
2022-09-28T11:04:22.112Z,989.67
2022-09-28T11:05:22.066Z,989.66
2022-09-28T11:06:22.034Z,989.72
2022-09-28T11:07:22.053Z,989.72
2022-09-28T11:08:22.023Z,989.69
2022-09-28T11:09:22.013Z,989.68
2022-09-28T11:10:21.986Z,989.68
2022-09-28T11:11:22.013Z,989.71
2022-09-28T11:12:21.976Z,989.72
2022-09-28T11:13:21.961Z,989.67
2022-09-28T11:14:21.939Z,989.67
2022-09-28T11:15:21.928Z,989.66
2022-09-28T11:16:21.972Z,989.63
2022-09-28T11:17:21.955Z,989.62
2022-09-28T11:18:21.904Z,989.65
2022-09-28T11:19:21.912Z,989.71
2022-09-28T11:20:27.069Z,989.71
2022-09-28T11:21:23.891Z,989.76
2022-09-28T11:22:21.867Z,989.70
2022-09-28T11:23:21.823Z,989.69
2022-09-28T11:24:22.132Z,989.73
2022-09-28T11:25:21.812Z,989.78
2022-09-28T11:26:21.777Z,989.74
2022-09-28T11:27:21.825Z,989.74
2022-09-28T11:28:21.741Z,989.69
2022-09-28T11:29:21.745Z,989.67
2022-09-28T11:30:21.760Z,989.71
2022-09-28T11:31:21.757Z,989.65
2022-09-28T11:32:21.696Z,989.64
2022-09-28T11:33:21.701Z,989.63
2022-09-28T11:34:31.089Z,989.64
2022-09-28T11:35:21.747Z,989.63
2022-09-28T11:36:21.638Z,989.62
2022-09-28T11:37:21.646Z,989.65
2022-09-28T11:38:21.616Z,989.64
2022-09-28T11:39:21.664Z,989.65
2022-09-28T11:40:21.654Z,989.67
2022-09-28T11:41:21.605Z,989.72
2022-09-28T11:42:21.573Z,989.73
2022-09-28T11:43:21.571Z,989.72
2022-09-28T11:44:21.593Z,989.69
2022-09-28T11:45:21.548Z,989.67
2022-09-28T11:46:21.531Z,989.68
2022-09-28T11:47:21.507Z,989.65
2022-09-28T11:48:21.532Z,989.63
2022-09-28T11:49:21.483Z,989.66
2022-09-28T11:50:24.457Z,989.73
2022-09-28T11:51:21.455Z,989.70
2022-09-28T11:52:21.450Z,989.74
2022-09-28T11:53:21.456Z,989.71
2022-09-28T11:54:21.493Z,989.69
2022-09-28T11:55:21.441Z,989.71
2022-09-28T11:56:21.401Z,989.71
2022-09-28T11:57:21.427Z,989.74
2022-09-28T11:58:21.358Z,989.74
2022-09-28T11:59:21.362Z,989.76
2022-09-28T12:00:21.371Z,989.77
2022-09-28T12:01:21.331Z,989.71
2022-09-28T12:02:21.385Z,989.74
2022-09-28T12:03:21.461Z,989.69
2022-09-28T12:04:21.308Z,989.75
2022-09-28T12:05:21.340Z,989.73
2022-09-28T12:06:21.251Z,989.73
2022-09-28T12:07:21.305Z,989.76
2022-09-28T12:08:21.220Z,989.80
2022-09-28T12:09:21.210Z,989.74
2022-09-28T12:10:21.222Z,989.76
2022-09-28T12:11:21.181Z,989.82
2022-09-28T12:12:21.199Z,989.78
2022-09-28T12:13:21.191Z,989.81
2022-09-28T12:14:21.146Z,989.79
2022-09-28T12:15:21.173Z,989.80
2022-09-28T12:16:45.665Z,989.82
2022-09-28T12:17:21.212Z,989.83
2022-09-28T12:18:21.090Z,989.88
2022-09-28T12:19:21.141Z,989.77
2022-09-28T12:20:21.077Z,989.81
2022-09-28T12:21:21.043Z,989.77
2022-09-28T12:22:21.046Z,989.79
2022-09-28T12:23:21.021Z,989.77
2022-09-28T12:24:21.005Z,989.79
2022-09-28T12:25:21.019Z,989.78
2022-09-28T12:26:21.008Z,989.78
2022-09-28T12:27:19.996Z,989.79
2022-09-28T12:28:20.942Z,989.80
2022-09-28T12:29:20.980Z,989.77
2022-09-28T12:30:20.918Z,989.78
2022-09-28T12:31:21.006Z,989.79
2022-09-28T12:32:20.896Z,989.76
2022-09-28T12:33:20.883Z,989.74
2022-09-28T12:34:20.876Z,989.76
2022-09-28T12:35:20.875Z,989.73
2022-09-28T12:36:20.884Z,989.77
2022-09-28T12:37:20.858Z,989.78
2022-09-28T12:38:20.817Z,989.76
2022-09-28T12:39:35.669Z,989.75
2022-09-28T12:40:20.833Z,989.70
2022-09-28T12:41:20.764Z,989.66
2022-09-28T12:42:20.764Z,989.71
2022-09-28T12:43:20.776Z,989.63
2022-09-28T12:44:20.748Z,989.67
2022-09-28T12:45:20.713Z,989.65
2022-09-28T12:46:20.773Z,989.67
2022-09-28T12:47:20.698Z,989.66
2022-09-28T12:48:20.733Z,989.64
2022-09-28T12:50:38.022Z,989.67
2022-09-28T12:51:20.650Z,989.71
2022-09-28T12:52:20.705Z,989.71
2022-09-28T12:53:20.605Z,989.69
2022-09-28T12:54:20.597Z,989.65
2022-09-28T12:55:20.604Z,989.62
2022-09-28T12:56:21.674Z,989.68
2022-09-28T12:57:20.578Z,989.67
2022-09-28T12:58:20.574Z,989.62
2022-09-28T12:59:20.530Z,989.60
2022-09-28T13:00:20.549Z,989.61
2022-09-28T13:01:20.626Z,989.58
2022-09-28T13:02:20.616Z,989.64
2022-09-28T13:03:20.474Z,989.67
2022-09-28T13:04:20.476Z,989.69
2022-09-28T13:05:20.789Z,989.65
2022-09-28T13:06:20.503Z,989.67
2022-09-28T13:07:20.438Z,989.70
2022-09-28T13:08:20.419Z,989.67
2022-09-28T13:09:20.464Z,989.70
2022-09-28T13:10:20.419Z,989.68
2022-09-28T13:11:20.375Z,989.66
2022-09-28T13:12:20.688Z,989.65
2022-09-28T13:13:20.364Z,989.66
2022-09-28T13:14:20.343Z,989.64
2022-09-28T13:15:20.328Z,989.64
2022-09-28T13:16:20.345Z,989.63
2022-09-28T13:17:20.480Z,989.67
2022-09-28T13:18:20.282Z,989.65
2022-09-28T13:19:20.289Z,989.66
2022-09-28T13:20:20.697Z,989.63
2022-09-28T13:21:20.281Z,989.67
2022-09-28T13:22:20.228Z,989.66
2022-09-28T13:23:20.261Z,989.71
2022-09-28T13:24:32.222Z,989.62
2022-09-28T13:25:20.218Z,989.63
2022-09-28T13:26:20.173Z,989.63
2022-09-28T13:27:21.678Z,989.71
2022-09-28T13:28:22.067Z,989.66
2022-09-28T13:29:20.250Z,989.66
2022-09-28T13:30:20.138Z,989.67
2022-09-28T13:31:21.689Z,989.68
2022-09-28T13:32:21.711Z,989.69
2022-09-28T13:33:20.080Z,989.68
2022-09-28T13:34:20.278Z,989.66
2022-09-28T13:35:20.794Z,989.64
2022-09-28T13:36:20.032Z,989.67
2022-09-28T13:37:20.094Z,989.64
2022-09-28T13:38:20.017Z,989.63
2022-09-28T13:39:20.077Z,989.67
2022-09-28T13:40:20.067Z,989.66
2022-09-28T13:41:19.971Z,989.70
2022-09-28T13:42:20.066Z,989.71
2022-09-28T13:43:19.984Z,989.61
2022-09-28T13:44:19.974Z,989.73
2022-09-28T13:45:19.936Z,989.74
2022-09-28T13:46:20.006Z,989.71
2022-09-28T13:47:21.068Z,989.72
2022-09-28T13:48:20.481Z,989.73
2022-09-28T13:49:19.919Z,989.69
2022-09-28T13:50:19.877Z,989.69
2022-09-28T13:51:19.858Z,989.68